sensor_id;sensor_type;location;lat;lon;timestamp;P1;durP1;ratioP1;P2;durP2;ratioP2
22673;SDS011;11504;43.334;21.918;2023-04-15T00:04:19;4.0;;;4.0;;
22673;SDS011;11504;43.334;21.918;2023-04-15T00:08:56;4.0;;;4.0;;
22673;SDS011;11504;43.334;21.918;2023-04-15T00:13:33;4.0;;;4.0;;
22673;SDS011;11504;43.334;21.918;2023-04-15T00:18:10;4.0;;;4.0;;
22673;SDS011;11504;43.334;21.918;2023-04-15T00:22:47;4.0;;;4.0;;
22673;SDS011;11504;43.334;21.918;2023-04-15T00:27:24;4.0;;;4.0;;
22673;SDS011;11504;43.334;21.918;2023-04-15T00:32:01;4.0;;;4.0;;
22673;SDS011;11504;43.334;21.918;2023-04-15T00:36:38;4.0;;;4.0;;
22673;SDS011;11504;43.334;21.918;2023-04-15T00:41:15;4.0;;;4.0;;
22673;SDS011;11504;43.334;21.918;2023-04-15T00:45:57;5.0;;;5.0;;
22673;SDS011;11504;43.334;21.918;2023-04-15T00:50:39;5.0;;;5.0;;
22673;SDS011;11504;43.334;21.918;2023-04-15T00:55:16;5.0;;;5.0;;
22673;SDS011;11504;43.334;21.918;2023-04-15T00:59:56;5.0;;;5.0;;
22673;SDS011;11504;43.334;21.918;2023-04-15T01:04:36;5.0;;;5.0;;
22673;SDS011;11504;43.334;21.918;2023-04-15T01:09:13;5.0;;;5.0;;
22673;SDS011;11504;43.334;21.918;2023-04-15T01:13:51;4.0;;;4.0;;
22673;SDS011;11504;43.334;21.918;2023-04-15T01:18:31;4.0;;;4.0;;
22673;SDS011;11504;43.334;21.918;2023-04-15T01:23:09;4.0;;;4.0;;
22673;SDS011;11504;43.334;21.918;2023-04-15T01:27:46;4.0;;;4.0;;
22673;SDS011;11504;43.334;21.918;2023-04-15T01:32:24;5.0;;;4.0;;
22673;SDS011;11504;43.334;21.918;2023-04-15T01:37:00;5.0;;;4.0;;
22673;SDS011;11504;43.334;21.918;2023-04-15T01:41:37;6.0;;;5.0;;
22673;SDS011;11504;43.334;21.918;2023-04-15T01:46:13;6.0;;;5.0;;
22673;SDS011;11504;43.334;21.918;2023-04-15T01:50:51;6.0;;;5.0;;
22673;SDS011;11504;43.334;21.918;2023-04-15T01:55:29;6.0;;;6.0;;
22673;SDS011;11504;43.334;21.918;2023-04-15T02:00:08;6.0;;;6.0;;
22673;SDS011;11504;43.334;21.918;2023-04-15T02:04:45;6.0;;;6.0;;
22673;SDS011;11504;43.334;21.918;2023-04-15T02:09:22;6.0;;;6.0;;
22673;SDS011;11504;43.334;21.918;2023-04-15T02:13:58;7.0;;;7.0;;
22673;SDS011;11504;43.334;21.918;2023-04-15T02:18:35;7.0;;;7.0;;
22673;SDS011;11504;43.334;21.918;2023-04-15T02:23:12;8.0;;;8.0;;
22673;SDS011;11504;43.334;21.918;2023-04-15T02:27:49;8.0;;;8.0;;
22673;SDS011;11504;43.334;21.918;2023-04-15T02:32:26;6.0;;;6.0;;
22673;SDS011;11504;43.334;21.918;2023-04-15T02:37:02;6.0;;;6.0;;
22673;SDS011;11504;43.334;21.918;2023-04-15T02:41:39;5.0;;;5.0;;
22673;SDS011;11504;43.334;21.918;2023-04-15T02:46:15;5.0;;;5.0;;
22673;SDS011;11504;43.334;21.918;2023-04-15T02:50:52;5.0;;;5.0;;
22673;SDS011;11504;43.334;21.918;2023-04-15T02:55:49;4.0;;;4.0;;
22673;SDS011;11504;43.334;21.918;2023-04-15T03:00:26;4.0;;;4.0;;
22673;SDS011;11504;43.334;21.918;2023-04-15T03:05:09;4.0;;;4.0;;
22673;SDS011;11504;43.334;21.918;2023-04-15T03:09:49;4.0;;;4.0;;
22673;SDS011;11504;43.334;21.918;2023-04-15T03:14:26;4.0;;;4.0;;
22673;SDS011;11504;43.334;21.918;2023-04-15T03:19:03;4.0;;;4.0;;
22673;SDS011;11504;43.334;21.918;2023-04-15T03:23:40;4.0;;;3.0;;
22673;SDS011;11504;43.334;21.918;2023-04-15T03:28:16;4.0;;;3.0;;
22673;SDS011;11504;43.334;21.918;2023-04-15T03:32:53;4.0;;;4.0;;
22673;SDS011;11504;43.334;21.918;2023-04-15T03:37:30;4.0;;;4.0;;
22673;SDS011;11504;43.334;21.918;2023-04-15T03:42:07;5.0;;;5.0;;
22673;SDS011;11504;43.334;21.918;2023-04-15T03:46:43;5.0;;;5.0;;
22673;SDS011;11504;43.334;21.918;2023-04-15T03:51:20;5.0;;;5.0;;
22673;SDS011;11504;43.334;21.918;2023-04-15T03:55:57;6.0;;;6.0;;
22673;SDS011;11504;43.334;21.918;2023-04-15T04:00:33;6.0;;;6.0;;
22673;SDS011;11504;43.334;21.918;2023-04-15T04:05:10;6.0;;;6.0;;
22673;SDS011;11504;43.334;21.918;2023-04-15T04:09:46;6.0;;;6.0;;
22673;SDS011;11504;43.334;21.918;2023-04-15T04:14:23;7.0;;;7.0;;
22673;SDS011;11504;43.334;21.918;2023-04-15T04:18:59;7.0;;;7.0;;
22673;SDS011;11504;43.334;21.918;2023-04-15T04:23:36;8.0;;;8.0;;
22673;SDS011;11504;43.334;21.918;2023-04-15T04:28:12;8.0;;;8.0;;
22673;SDS011;11504;43.334;21.918;2023-04-15T04:32:49;12.0;;;10.0;;
22673;SDS011;11504;43.334;21.918;2023-04-15T04:37:26;12.0;;;10.0;;
22673;SDS011;11504;43.334;21.918;2023-04-15T04:42:02;15.0;;;13.0;;
22673;SDS011;11504;43.334;21.918;2023-04-15T04:46:38;15.0;;;13.0;;
22673;SDS011;11504;43.334;21.918;2023-04-15T04:51:15;15.0;;;13.0;;
22673;SDS011;11504;43.334;21.918;2023-04-15T04:55:51;14.0;;;13.0;;
22673;SDS011;11504;43.334;21.918;2023-04-15T05:00:28;14.0;;;13.0;;
22673;SDS011;11504;43.334;21.918;2023-04-15T05:05:06;13.0;;;13.0;;
22673;SDS011;11504;43.334;21.918;2023-04-15T05:09:45;13.0;;;13.0;;
22673;SDS011;11504;43.334;21.918;2023-04-15T05:14:22;14.0;;;14.0;;
22673;SDS011;11504;43.334;21.918;2023-04-15T05:18:58;14.0;;;14.0;;
22673;SDS011;11504;43.334;21.918;2023-04-15T05:23:35;16.0;;;15.0;;
22673;SDS011;11504;43.334;21.918;2023-04-15T05:28:11;16.0;;;15.0;;
22673;SDS011;11504;43.334;21.918;2023-04-15T05:32:49;15.0;;;14.0;;
22673;SDS011;11504;43.334;21.918;2023-04-15T05:37:26;15.0;;;14.0;;
22673;SDS011;11504;43.334;21.918;2023-04-15T05:42:03;14.0;;;13.0;;
22673;SDS011;11504;43.334;21.918;2023-04-15T05:46:40;14.0;;;13.0;;
22673;SDS011;11504;43.334;21.918;2023-04-15T05:51:18;14.0;;;13.0;;
22673;SDS011;11504;43.334;21.918;2023-04-15T05:55:55;14.0;;;12.0;;
22673;SDS011;11504;43.334;21.918;2023-04-15T06:00:32;14.0;;;12.0;;
22673;SDS011;11504;43.334;21.918;2023-04-15T06:05:09;13.0;;;12.0;;
22673;SDS011;11504;43.334;21.918;2023-04-15T06:09:45;13.0;;;12.0;;
22673;SDS011;11504;43.334;21.918;2023-04-15T06:14:22;14.0;;;13.0;;
22673;SDS011;11504;43.334;21.918;2023-04-15T06:18:59;14.0;;;13.0;;
22673;SDS011;11504;43.334;21.918;2023-04-15T06:23:36;15.0;;;14.0;;
22673;SDS011;11504;43.334;21.918;2023-04-15T06:28:13;15.0;;;14.0;;
22673;SDS011;11504;43.334;21.918;2023-04-15T06:32:50;17.0;;;16.0;;
22673;SDS011;11504;43.334;21.918;2023-04-15T06:37:27;17.0;;;16.0;;
22673;SDS011;11504;43.334;21.918;2023-04-15T06:42:03;19.0;;;17.0;;
22673;SDS011;11504;43.334;21.918;2023-04-15T06:46:40;19.0;;;17.0;;
22673;SDS011;11504;43.334;21.918;2023-04-15T06:51:17;19.0;;;17.0;;
22673;SDS011;11504;43.334;21.918;2023-04-15T06:55:54;15.0;;;14.0;;
22673;SDS011;11504;43.334;21.918;2023-04-15T07:00:31;15.0;;;14.0;;
22673;SDS011;11504;43.334;21.918;2023-04-15T07:05:08;11.0;;;11.0;;
22673;SDS011;11504;43.334;21.918;2023-04-15T07:09:44;11.0;;;11.0;;
22673;SDS011;11504;43.334;21.918;2023-04-15T07:14:21;10.0;;;9.0;;
22673;SDS011;11504;43.334;21.918;2023-04-15T07:18:57;10.0;;;9.0;;
22673;SDS011;11504;43.334;21.918;2023-04-15T07:23:33;9.0;;;7.0;;
22673;SDS011;11504;43.334;21.918;2023-04-15T07:28:10;9.0;;;7.0;;
22673;SDS011;11504;43.334;21.918;2023-04-15T07:32:46;10.0;;;8.0;;
22673;SDS011;11504;43.334;21.918;2023-04-15T07:37:22;10.0;;;8.0;;
22673;SDS011;11504;43.334;21.918;2023-04-15T07:41:59;12.0;;;10.0;;
22673;SDS011;11504;43.334;21.918;2023-04-15T07:46:36;12.0;;;10.0;;
22673;SDS011;11504;43.334;21.918;2023-04-15T07:51:13;12.0;;;10.0;;
22673;SDS011;11504;43.334;21.918;2023-04-15T07:55:49;12.0;;;10.0;;
22673;SDS011;11504;43.334;21.918;2023-04-15T08:00:26;12.0;;;10.0;;
22673;SDS011;11504;43.334;21.918;2023-04-15T08:05:03;11.0;;;10.0;;
22673;SDS011;11504;43.334;21.918;2023-04-15T08:09:43;11.0;;;10.0;;
22673;SDS011;11504;43.334;21.918;2023-04-15T08:14:20;8.0;;;8.0;;
22673;SDS011;11504;43.334;21.918;2023-04-15T08:18:59;8.0;;;8.0;;
22673;SDS011;11504;43.334;21.918;2023-04-15T08:23:37;6.0;;;5.0;;
22673;SDS011;11504;43.334;21.918;2023-04-15T08:28:14;6.0;;;5.0;;
22673;SDS011;11504;43.334;21.918;2023-04-15T08:32:51;6.0;;;4.0;;
22673;SDS011;11504;43.334;21.918;2023-04-15T08:37:28;6.0;;;4.0;;
22673;SDS011;11504;43.334;21.918;2023-04-15T08:42:16;5.0;;;4.0;;
22673;SDS011;11504;43.334;21.918;2023-04-15T08:47:15;5.0;;;4.0;;
22673;SDS011;11504;43.334;21.918;2023-04-15T08:52:02;4.0;;;4.0;;
22673;SDS011;11504;43.334;21.918;2023-04-15T08:56:41;4.0;;;4.0;;
22673;SDS011;11504;43.334;21.918;2023-04-15T09:01:19;4.0;;;4.0;;
22673;SDS011;11504;43.334;21.918;2023-04-15T09:05:58;4.0;;;3.0;;
22673;SDS011;11504;43.334;21.918;2023-04-15T09:10:38;4.0;;;3.0;;
22673;SDS011;11504;43.334;21.918;2023-04-15T09:15:16;4.0;;;3.0;;
22673;SDS011;11504;43.334;21.918;2023-04-15T09:20:09;4.0;;;3.0;;
22673;SDS011;11504;43.334;21.918;2023-04-15T09:24:51;4.0;;;3.0;;
22673;SDS011;11504;43.334;21.918;2023-04-15T09:29:28;4.0;;;3.0;;
22673;SDS011;11504;43.334;21.918;2023-04-15T09:34:06;4.0;;;4.0;;
22673;SDS011;11504;43.334;21.918;2023-04-15T09:38:55;4.0;;;4.0;;
22673;SDS011;11504;43.334;21.918;2023-04-15T09:43:40;5.0;;;4.0;;
22673;SDS011;11504;43.334;21.918;2023-04-15T09:48:21;5.0;;;4.0;;
22673;SDS011;11504;43.334;21.918;2023-04-15T09:53:03;4.0;;;4.0;;
22673;SDS011;11504;43.334;21.918;2023-04-15T09:57:40;4.0;;;4.0;;
22673;SDS011;11504;43.334;21.918;2023-04-15T10:02:19;3.0;;;3.0;;
22673;SDS011;11504;43.334;21.918;2023-04-15T10:06:58;3.0;;;3.0;;
22673;SDS011;11504;43.334;21.918;2023-04-15T10:11:35;3.0;;;3.0;;
22673;SDS011;11504;43.334;21.918;2023-04-15T10:16:18;3.0;;;3.0;;
22673;SDS011;11504;43.334;21.918;2023-04-15T10:21:04;3.0;;;3.0;;
22673;SDS011;11504;43.334;21.918;2023-04-15T10:25:45;3.0;;;3.0;;
22673;SDS011;11504;43.334;21.918;2023-04-15T10:30:27;3.0;;;3.0;;
22673;SDS011;11504;43.334;21.918;2023-04-15T10:35:06;4.0;;;4.0;;
22673;SDS011;11504;43.334;21.918;2023-04-15T10:39:45;4.0;;;4.0;;
22673;SDS011;11504;43.334;21.918;2023-04-15T10:44:22;4.0;;;4.0;;
22673;SDS011;11504;43.334;21.918;2023-04-15T10:49:09;4.0;;;4.0;;
22673;SDS011;11504;43.334;21.918;2023-04-15T10:54:00;4.0;;;4.0;;
22673;SDS011;11504;43.334;21.918;2023-04-15T10:58:42;4.0;;;4.0;;
22673;SDS011;11504;43.334;21.918;2023-04-15T11:03:38;3.0;;;3.0;;
22673;SDS011;11504;43.334;21.918;2023-04-15T11:08:55;3.0;;;3.0;;
22673;SDS011;11504;43.334;21.918;2023-04-15T11:13:46;4.0;;;4.0;;
22673;SDS011;11504;43.334;21.918;2023-04-15T11:18:33;4.0;;;4.0;;
22673;SDS011;11504;43.334;21.918;2023-04-15T11:23:12;5.0;;;4.0;;
22673;SDS011;11504;43.334;21.918;2023-04-15T11:27:55;5.0;;;4.0;;
22673;SDS011;11504;43.334;21.918;2023-04-15T11:32:36;5.0;;;4.0;;
22673;SDS011;11504;43.334;21.918;2023-04-15T11:37:16;5.0;;;4.0;;
22673;SDS011;11504;43.334;21.918;2023-04-15T11:42:16;5.0;;;4.0;;
22673;SDS011;11504;43.334;21.918;2023-04-15T11:46:54;5.0;;;4.0;;
22673;SDS011;11504;43.334;21.918;2023-04-15T11:51:33;5.0;;;4.0;;
22673;SDS011;11504;43.334;21.918;2023-04-15T11:56:20;4.0;;;4.0;;
22673;SDS011;11504;43.334;21.918;2023-04-15T12:01:01;4.0;;;4.0;;
22673;SDS011;11504;43.334;21.918;2023-04-15T12:06:11;4.0;;;4.0;;
22673;SDS011;11504;43.334;21.918;2023-04-15T12:10:58;4.0;;;4.0;;
22673;SDS011;11504;43.334;21.918;2023-04-15T12:15:37;4.0;;;4.0;;
22673;SDS011;11504;43.334;21.918;2023-04-15T12:20:19;4.0;;;4.0;;
22673;SDS011;11504;43.334;21.918;2023-04-15T12:25:00;4.0;;;3.0;;
22673;SDS011;11504;43.334;21.918;2023-04-15T12:29:40;4.0;;;3.0;;
22673;SDS011;11504;43.334;21.918;2023-04-15T12:34:28;6.0;;;5.0;;
22673;SDS011;11504;43.334;21.918;2023-04-15T12:39:08;6.0;;;5.0;;
22673;SDS011;11504;43.334;21.918;2023-04-15T12:43:45;7.0;;;7.0;;
22673;SDS011;11504;43.334;21.918;2023-04-15T12:48:21;7.0;;;7.0;;
22673;SDS011;11504;43.334;21.918;2023-04-15T12:52:57;6.0;;;6.0;;
22673;SDS011;11504;43.334;21.918;2023-04-15T12:57:33;6.0;;;6.0;;
22673;SDS011;11504;43.334;21.918;2023-04-15T13:02:10;4.0;;;4.0;;
22673;SDS011;11504;43.334;21.918;2023-04-15T13:06:47;4.0;;;4.0;;
22673;SDS011;11504;43.334;21.918;2023-04-15T13:11:24;4.0;;;4.0;;
22673;SDS011;11504;43.334;21.918;2023-04-15T13:16:01;4.0;;;4.0;;
22673;SDS011;11504;43.334;21.918;2023-04-15T13:20:38;4.0;;;4.0;;
22673;SDS011;11504;43.334;21.918;2023-04-15T13:25:14;4.0;;;4.0;;
22673;SDS011;11504;43.334;21.918;2023-04-15T13:29:51;4.0;;;4.0;;
22673;SDS011;11504;43.334;21.918;2023-04-15T13:34:30;4.0;;;4.0;;
22673;SDS011;11504;43.334;21.918;2023-04-15T13:39:07;4.0;;;4.0;;
22673;SDS011;11504;43.334;21.918;2023-04-15T13:43:44;5.0;;;5.0;;
22673;SDS011;11504;43.334;21.918;2023-04-15T13:48:21;5.0;;;5.0;;
22673;SDS011;11504;43.334;21.918;2023-04-15T13:52:58;6.0;;;5.0;;
22673;SDS011;11504;43.334;21.918;2023-04-15T13:57:35;6.0;;;5.0;;
22673;SDS011;11504;43.334;21.918;2023-04-15T14:02:12;6.0;;;5.0;;
22673;SDS011;11504;43.334;21.918;2023-04-15T14:06:50;6.0;;;5.0;;
22673;SDS011;11504;43.334;21.918;2023-04-15T14:11:27;6.0;;;5.0;;
22673;SDS011;11504;43.334;21.918;2023-04-15T14:16:05;6.0;;;5.0;;
22673;SDS011;11504;43.334;21.918;2023-04-15T14:20:42;6.0;;;5.0;;
22673;SDS011;11504;43.334;21.918;2023-04-15T14:25:19;5.0;;;5.0;;
22673;SDS011;11504;43.334;21.918;2023-04-15T14:29:56;5.0;;;5.0;;
22673;SDS011;11504;43.334;21.918;2023-04-15T14:34:32;5.0;;;4.0;;
22673;SDS011;11504;43.334;21.918;2023-04-15T14:39:10;5.0;;;4.0;;
22673;SDS011;11504;43.334;21.918;2023-04-15T14:43:48;5.0;;;4.0;;
22673;SDS011;11504;43.334;21.918;2023-04-15T14:48:25;5.0;;;4.0;;
22673;SDS011;11504;43.334;21.918;2023-04-15T14:53:03;8.0;;;7.0;;
22673;SDS011;11504;43.334;21.918;2023-04-15T14:57:41;8.0;;;7.0;;
22673;SDS011;11504;43.334;21.918;2023-04-15T15:02:18;11.0;;;10.0;;
22673;SDS011;11504;43.334;21.918;2023-04-15T15:06:55;11.0;;;10.0;;
22673;SDS011;11504;43.334;21.918;2023-04-15T15:11:31;11.0;;;10.0;;
22673;SDS011;11504;43.334;21.918;2023-04-15T15:16:08;8.0;;;7.0;;
22673;SDS011;11504;43.334;21.918;2023-04-15T15:20:44;8.0;;;7.0;;
22673;SDS011;11504;43.334;21.918;2023-04-15T15:25:21;4.0;;;4.0;;
22673;SDS011;11504;43.334;21.918;2023-04-15T15:29:58;4.0;;;4.0;;
22673;SDS011;11504;43.334;21.918;2023-04-15T15:34:34;4.0;;;4.0;;
22673;SDS011;11504;43.334;21.918;2023-04-15T15:39:11;4.0;;;4.0;;
22673;SDS011;11504;43.334;21.918;2023-04-15T15:43:47;5.0;;;4.0;;
22673;SDS011;11504;43.334;21.918;2023-04-15T15:48:24;5.0;;;4.0;;
22673;SDS011;11504;43.334;21.918;2023-04-15T15:53:01;6.0;;;5.0;;
22673;SDS011;11504;43.334;21.918;2023-04-15T15:57:37;6.0;;;5.0;;
22673;SDS011;11504;43.334;21.918;2023-04-15T16:02:14;7.0;;;6.0;;
22673;SDS011;11504;43.334;21.918;2023-04-15T16:06:52;7.0;;;6.0;;
22673;SDS011;11504;43.334;21.918;2023-04-15T16:11:29;7.0;;;6.0;;
22673;SDS011;11504;43.334;21.918;2023-04-15T16:16:06;6.0;;;6.0;;
22673;SDS011;11504;43.334;21.918;2023-04-15T16:20:43;6.0;;;6.0;;
22673;SDS011;11504;43.334;21.918;2023-04-15T16:25:20;6.0;;;5.0;;
22673;SDS011;11504;43.334;21.918;2023-04-15T16:29:57;6.0;;;5.0;;
22673;SDS011;11504;43.334;21.918;2023-04-15T16:34:34;7.0;;;6.0;;
22673;SDS011;11504;43.334;21.918;2023-04-15T16:39:11;7.0;;;6.0;;
22673;SDS011;11504;43.334;21.918;2023-04-15T16:43:48;8.0;;;6.0;;
22673;SDS011;11504;43.334;21.918;2023-04-15T16:48:26;8.0;;;6.0;;
22673;SDS011;11504;43.334;21.918;2023-04-15T16:53:02;8.0;;;6.0;;
22673;SDS011;11504;43.334;21.918;2023-04-15T16:57:39;8.0;;;6.0;;
22673;SDS011;11504;43.334;21.918;2023-04-15T17:02:16;7.0;;;6.0;;
22673;SDS011;11504;43.334;21.918;2023-04-15T17:06:53;7.0;;;6.0;;
22673;SDS011;11504;43.334;21.918;2023-04-15T17:11:30;7.0;;;6.0;;
22673;SDS011;11504;43.334;21.918;2023-04-15T17:16:08;8.0;;;6.0;;
22673;SDS011;11504;43.334;21.918;2023-04-15T17:20:45;8.0;;;6.0;;
22673;SDS011;11504;43.334;21.918;2023-04-15T17:25:22;8.0;;;6.0;;
22673;SDS011;11504;43.334;21.918;2023-04-15T17:29:58;8.0;;;6.0;;
22673;SDS011;11504;43.334;21.918;2023-04-15T17:34:35;12.0;;;10.0;;
22673;SDS011;11504;43.334;21.918;2023-04-15T17:39:12;12.0;;;10.0;;
22673;SDS011;11504;43.334;21.918;2023-04-15T17:43:49;16.0;;;15.0;;
22673;SDS011;11504;43.334;21.918;2023-04-15T17:48:26;16.0;;;15.0;;
22673;SDS011;11504;43.334;21.918;2023-04-15T17:53:02;33.0;;;31.0;;
22673;SDS011;11504;43.334;21.918;2023-04-15T17:57:38;33.0;;;31.0;;
22673;SDS011;11504;43.334;21.918;2023-04-15T18:02:15;50.0;;;47.0;;
22673;SDS011;11504;43.334;21.918;2023-04-15T18:06:51;50.0;;;47.0;;
22673;SDS011;11504;43.334;21.918;2023-04-15T18:11:28;50.0;;;47.0;;
22673;SDS011;11504;43.334;21.918;2023-04-15T18:16:04;60.0;;;55.0;;
22673;SDS011;11504;43.334;21.918;2023-04-15T18:20:40;60.0;;;55.0;;
22673;SDS011;11504;43.334;21.918;2023-04-15T18:25:17;71.0;;;63.0;;
22673;SDS011;11504;43.334;21.918;2023-04-15T18:29:54;71.0;;;63.0;;
22673;SDS011;11504;43.334;21.918;2023-04-15T18:34:30;49.0;;;44.0;;
22673;SDS011;11504;43.334;21.918;2023-04-15T18:39:07;49.0;;;44.0;;
22673;SDS011;11504;43.334;21.918;2023-04-15T18:43:44;27.0;;;26.0;;
22673;SDS011;11504;43.334;21.918;2023-04-15T18:48:20;27.0;;;26.0;;
22673;SDS011;11504;43.334;21.918;2023-04-15T18:52:57;31.0;;;28.0;;
22673;SDS011;11504;43.334;21.918;2023-04-15T18:57:34;31.0;;;28.0;;
22673;SDS011;11504;43.334;21.918;2023-04-15T19:02:11;31.0;;;28.0;;
22673;SDS011;11504;43.334;21.918;2023-04-15T19:06:48;35.0;;;31.0;;
22673;SDS011;11504;43.334;21.918;2023-04-15T19:11:26;35.0;;;31.0;;
22673;SDS011;11504;43.334;21.918;2023-04-15T19:16:04;41.0;;;37.0;;
22673;SDS011;11504;43.334;21.918;2023-04-15T19:20:40;41.0;;;37.0;;
22673;SDS011;11504;43.334;21.918;2023-04-15T19:25:18;47.0;;;43.0;;
22673;SDS011;11504;43.334;21.918;2023-04-15T19:29:55;47.0;;;43.0;;
22673;SDS011;11504;43.334;21.918;2023-04-15T19:34:32;49.0;;;46.0;;
22673;SDS011;11504;43.334;21.918;2023-04-15T19:39:09;49.0;;;46.0;;
22673;SDS011;11504;43.334;21.918;2023-04-15T19:43:46;51.0;;;48.0;;
22673;SDS011;11504;43.334;21.918;2023-04-15T19:48:24;51.0;;;48.0;;
22673;SDS011;11504;43.334;21.918;2023-04-15T19:53:01;50.0;;;46.0;;
22673;SDS011;11504;43.334;21.918;2023-04-15T19:57:38;50.0;;;46.0;;
22673;SDS011;11504;43.334;21.918;2023-04-15T20:02:14;50.0;;;46.0;;
22673;SDS011;11504;43.334;21.918;2023-04-15T20:06:51;49.0;;;43.0;;
22673;SDS011;11504;43.334;21.918;2023-04-15T20:11:29;49.0;;;43.0;;
22673;SDS011;11504;43.334;21.918;2023-04-15T20:16:05;36.0;;;32.0;;
22673;SDS011;11504;43.334;21.918;2023-04-15T20:20:42;36.0;;;32.0;;
22673;SDS011;11504;43.334;21.918;2023-04-15T20:25:19;23.0;;;20.0;;
22673;SDS011;11504;43.334;21.918;2023-04-15T20:29:55;23.0;;;20.0;;
22673;SDS011;11504;43.334;21.918;2023-04-15T20:34:32;30.0;;;26.0;;
22673;SDS011;11504;43.334;21.918;2023-04-15T20:39:08;30.0;;;26.0;;
22673;SDS011;11504;43.334;21.918;2023-04-15T20:43:44;36.0;;;32.0;;
22673;SDS011;11504;43.334;21.918;2023-04-15T20:48:21;36.0;;;32.0;;
22673;SDS011;11504;43.334;21.918;2023-04-15T20:52:58;32.0;;;29.0;;
22673;SDS011;11504;43.334;21.918;2023-04-15T20:57:34;32.0;;;29.0;;
22673;SDS011;11504;43.334;21.918;2023-04-15T21:02:11;32.0;;;29.0;;
22673;SDS011;11504;43.334;21.918;2023-04-15T21:06:47;28.0;;;26.0;;
22673;SDS011;11504;43.334;21.918;2023-04-15T21:11:23;28.0;;;26.0;;
22673;SDS011;11504;43.334;21.918;2023-04-15T21:16:00;24.0;;;22.0;;
22673;SDS011;11504;43.334;21.918;2023-04-15T21:20:36;24.0;;;22.0;;
22673;SDS011;11504;43.334;21.918;2023-04-15T21:25:12;20.0;;;17.0;;
22673;SDS011;11504;43.334;21.918;2023-04-15T21:29:49;20.0;;;17.0;;
22673;SDS011;11504;43.334;21.918;2023-04-15T21:34:25;18.0;;;14.0;;
22673;SDS011;11504;43.334;21.918;2023-04-15T21:39:03;18.0;;;14.0;;
22673;SDS011;11504;43.334;21.918;2023-04-15T21:43:40;15.0;;;12.0;;
22673;SDS011;11504;43.334;21.918;2023-04-15T21:48:18;15.0;;;12.0;;
22673;SDS011;11504;43.334;21.918;2023-04-15T21:52:56;14.0;;;10.0;;
22673;SDS011;11504;43.334;21.918;2023-04-15T21:57:33;14.0;;;10.0;;
22673;SDS011;11504;43.334;21.918;2023-04-15T22:02:09;14.0;;;10.0;;
22673;SDS011;11504;43.334;21.918;2023-04-15T22:06:46;12.0;;;9.0;;
22673;SDS011;11504;43.334;21.918;2023-04-15T22:11:23;12.0;;;9.0;;
22673;SDS011;11504;43.334;21.918;2023-04-15T22:16:01;12.0;;;10.0;;
22673;SDS011;11504;43.334;21.918;2023-04-15T22:20:38;12.0;;;10.0;;
22673;SDS011;11504;43.334;21.918;2023-04-15T22:25:15;12.0;;;11.0;;
22673;SDS011;11504;43.334;21.918;2023-04-15T22:29:53;12.0;;;11.0;;
22673;SDS011;11504;43.334;21.918;2023-04-15T22:34:29;14.0;;;12.0;;
22673;SDS011;11504;43.334;21.918;2023-04-15T22:39:06;14.0;;;12.0;;
22673;SDS011;11504;43.334;21.918;2023-04-15T22:43:43;15.0;;;13.0;;
22673;SDS011;11504;43.334;21.918;2023-04-15T22:48:21;15.0;;;13.0;;
22673;SDS011;11504;43.334;21.918;2023-04-15T22:52:58;13.0;;;12.0;;
22673;SDS011;11504;43.334;21.918;2023-04-15T22:57:34;13.0;;;12.0;;
22673;SDS011;11504;43.334;21.918;2023-04-15T23:02:10;13.0;;;12.0;;
22673;SDS011;11504;43.334;21.918;2023-04-15T23:06:47;11.0;;;10.0;;
22673;SDS011;11504;43.334;21.918;2023-04-15T23:11:23;11.0;;;10.0;;
22673;SDS011;11504;43.334;21.918;2023-04-15T23:16:00;10.0;;;9.0;;
22673;SDS011;11504;43.334;21.918;2023-04-15T23:20:37;10.0;;;9.0;;
22673;SDS011;11504;43.334;21.918;2023-04-15T23:25:14;8.0;;;8.0;;
22673;SDS011;11504;43.334;21.918;2023-04-15T23:29:50;8.0;;;8.0;;
22673;SDS011;11504;43.334;21.918;2023-04-15T23:34:26;11.0;;;10.0;;
22673;SDS011;11504;43.334;21.918;2023-04-15T23:39:02;11.0;;;10.0;;
22673;SDS011;11504;43.334;21.918;2023-04-15T23:43:39;14.0;;;13.0;;
22673;SDS011;11504;43.334;21.918;2023-04-15T23:48:15;14.0;;;13.0;;
22673;SDS011;11504;43.334;21.918;2023-04-15T23:52:52;13.0;;;12.0;;
22673;SDS011;11504;43.334;21.918;2023-04-15T23:57:29;13.0;;;12.0;;
